Flight Track Log - Related Links

Times and Time Zones

All times are in EDT time to prevent confusion due to time zone crossing. See the UAL4849 flight status page for this flight to view local times or setup timezone preferences in your user account.

Time Position Orientation Groundspeed Altitude Reporting Facility
EDT Latitude Longitude Course Direction KTS MPH feet Rate Location/Type
Wed 10:28:09 AM 43.1056 -77.6883 216° Southwest 118 136 1,100  Level Cleveland Center
Wed 10:28:39 AM 43.0933 -77.7003 216° Southwest 112 129 2,100 1,385 Climbing Cleveland Center
Wed 10:29:40 AM 43.0619 -77.6903 167° South 157 181 3,200 1,160 Climbing Cleveland Center
Wed 10:30:38 AM 43.0436 -77.6344 114° Southeast 197 227 4,400 1,271 Climbing Cleveland Center
Wed 10:31:38 AM 43.0214 -77.5758 117° Southeast 196 226 5,700 1,350 Climbing Cleveland Center
Wed 10:32:38 AM 43.0031 -77.5114 111° Southeast 186 214 7,100 1,200 Climbing Cleveland Center
Wed 10:33:38 AM 42.9825 -77.4500 115° Southeast 181 208 8,100 950 Climbing Cleveland Center
Wed 10:34:38 AM 42.9578 -77.3831 117° Southeast 181 208 9,000 1,000 Climbing Cleveland Center
Wed 10:35:38 AM 42.9350 -77.3133 114° Southeast 192 221 10,100 1,150 Climbing Cleveland Center
Wed 10:36:38 AM 42.9100 -77.2439 116° Southeast 197 227 11,300 989 Climbing Cleveland Center
Wed 10:38:40 AM 42.8642 -77.1053 114° Southeast 202 232 13,100 597 Climbing New York Center
Wed 10:39:39 AM 42.8350 -77.0233 116° Southeast 213 245 13,100  Level New York Center
Wed 10:40:41 AM 42.8000 -76.9381 119° Southeast 237 273 13,100 -49 Level New York Center
Wed 10:41:42 AM 42.7608 -76.8494 121° Southeast 260 299 13,000 -51 Descending New York Center
Wed 10:42:39 AM 42.7217 -76.7583 120° Southeast 276 318 13,000  Level New York Center
Wed 10:43:40 AM 42.6806 -76.6672 122° Southeast 276 318 13,000  Level New York Center
Wed 10:44:39 AM 42.6411 -76.5764 121° Southeast 276 318 13,000  Level New York Center
Wed 10:45:39 AM 42.5997 -76.4853 122° Southeast 281 323 13,000  Level New York Center
Wed 10:47:52 AM 42.5103 -76.2908 122° Southeast 274 315 13,000  Level Boston Center
Wed 10:48:52 AM 42.4658 -76.1867 120° Southeast 279 321 13,000  Level Boston Center
Wed 10:49:52 AM 42.4228 -76.0969 123° Southeast 284 327 13,000  Level Boston Center
Wed 10:50:52 AM 42.3797 -76.0044 122° Southeast 290 334 13,000  Level Boston Center
Wed 10:52:04 AM 42.3389 -75.9092 120° Southeast 285 328 13,000  Level Boston Center
Wed 10:53:04 AM 42.2900 -75.8056 123° Southeast 285 328 13,000  Level Boston Center
Wed 10:54:04 AM 42.2489 -75.7164 122° Southeast 291 335 13,000  Level Boston Center
Wed 10:55:04 AM 42.2078 -75.6217 120° Southeast 291 335 13,000  Level Boston Center
Wed 10:56:04 AM 42.1644 -75.5269 122° Southeast 291 335 13,000  Level Boston Center
Wed 10:57:04 AM 42.1211 -75.4381 123° Southeast 286 329 13,000  Level Boston Center
Wed 10:58:04 AM 42.0775 -75.3464 123° Southeast 286 329 13,000  Level Boston Center
Wed 10:59:04 AM 42.0383 -75.2494 119° Southeast 286 329 13,000 50 Level Boston Center
Wed 11:00:04 AM 42.0031 -75.1531 116° Southeast 286 329 13,100  Climbing Boston Center
Wed 11:01:04 AM 41.9658 -75.0564 117° Southeast 286 329 13,000 -50 Descending Boston Center
Wed 11:02:04 AM 41.9244 -74.9458 117° Southeast 291 335 13,000 -550 Level Boston Center
Wed 11:03:04 AM 41.8611 -74.8989 151° Southeast 275 316 11,900 -1,250 Descending Boston Center
Wed 11:04:04 AM 41.7808 -74.8456 154° Southeast 288 331 10,500 -1,250 Descending Boston Center
Wed 11:05:04 AM 41.7192 -74.8014 152° Southeast 294 338 9,400 -1,150 Descending Boston Center
Wed 11:06:04 AM 41.6453 -74.7486 152° Southeast 281 323 8,200 -1,150 Descending Boston Center
Wed 11:07:04 AM 41.5856 -74.7106 155° Southeast 274 315 7,100 -1,100 Descending Boston Center
Wed 11:08:04 AM 41.5117 -74.6606 153° Southeast 274 315 6,000 -455 Descending Boston Center
Wed 11:09:29 AM 41.4167 -74.6000 154° Southeast 259 298 6,000  Level New York TRACON
Wed 11:10:29 AM 41.3500 -74.6167 191° South 248 285 6,000 -350 Level New York TRACON
Wed 11:11:29 AM 41.2833 -74.6167 180° South 262 302 5,300 -500 Descending New York TRACON
Wed 11:12:29 AM 41.2167 -74.5833 159° South 260 299 5,000 -150 Descending New York TRACON
Wed 11:13:29 AM 41.1500 -74.5167 143° Southeast 258 297 5,000  Level New York TRACON
Wed 11:14:29 AM 41.1000 -74.5167 180° South 233 268 5,000  Level New York TRACON
Wed 11:15:29 AM 41.0333 -74.5000 169° South 236 272 5,000  Level New York TRACON
Wed 11:16:29 AM 40.9833 -74.4333 135° Southeast 257 296 5,000 -100 Level New York TRACON
Wed 11:17:29 AM 40.9833 -74.3500 90° East 258 297 4,800 -500 Descending New York TRACON
Wed 11:18:29 AM 40.9667 -74.2500 102° East 244 281 4,000 -400 Descending New York TRACON
Wed 11:19:29 AM 40.9333 -74.1833 123° Southeast 213 245 4,000  Level New York TRACON
Wed 11:20:29 AM 40.9167 -74.1167 108° East 227 261 4,000 -300 Level New York TRACON
Wed 11:21:29 AM 40.9167 -74.0333 90° East 219 252 3,400 -500 Descending New York TRACON
Wed 11:22:29 AM 40.8667 -74.0500 194° South 168 193 3,000 -300 Descending New York TRACON
Wed 11:23:29 AM 40.8333 -74.0833 217° Southwest 160 184 2,800 -500 Descending New York TRACON
Wed 11:24:29 AM 40.7833 -74.1000 194° South 159 183 2,000 -800 Descending New York TRACON
Wed 11:25:29 AM 40.7500 -74.1333 217° Southwest 117 135 1,200 -700 Descending New York TRACON
Wed 11:26:29 AM 40.7333 -74.1500 217° Southwest 114 131 600 -600 Descending New York TRACON
Wed 11:28:00 AM 40.6925 -74.1687 192° South  Level Estimated
Wed 11:35:00 AM 40.6925 -74.1687 192° South  Level Estimated
Wed 11:36:00 AM 40.6925 -74.1687 192° South  Level Estimated

Login

Don't have an account? Register now (free) for customized features, flight alerts, and more!